sensor_id;sensor_type;location;lat;lon;timestamp;P1;durP1;ratioP1;P2;durP2;ratioP2
81960;SDS011;71462;50.650;6.888;2023-12-22T00:01:37;5.35;;;1.70;;
81960;SDS011;71462;50.650;6.888;2023-12-22T00:04:07;19.70;;;3.60;;
81960;SDS011;71462;50.650;6.888;2023-12-22T00:06:46;10.88;;;2.40;;
81960;SDS011;71462;50.650;6.888;2023-12-22T00:09:19;16.33;;;2.70;;
81960;SDS011;71462;50.650;6.888;2023-12-22T00:11:47;10.45;;;2.40;;
81960;SDS011;71462;50.650;6.888;2023-12-22T00:14:16;9.23;;;2.28;;
81960;SDS011;71462;50.650;6.888;2023-12-22T00:16:44;14.25;;;1.80;;
81960;SDS011;71462;50.650;6.888;2023-12-22T00:19:13;13.93;;;2.60;;
81960;SDS011;71462;50.650;6.888;2023-12-22T00:22:11;14.30;;;3.38;;
81960;SDS011;71462;50.650;6.888;2023-12-22T00:24:39;13.13;;;3.38;;
81960;SDS011;71462;50.650;6.888;2023-12-22T00:27:07;13.25;;;3.17;;
81960;SDS011;71462;50.650;6.888;2023-12-22T00:29:35;16.17;;;2.53;;
81960;SDS011;71462;50.650;6.888;2023-12-22T00:32:03;10.10;;;2.10;;
81960;SDS011;71462;50.650;6.888;2023-12-22T00:34:33;5.75;;;1.15;;
81960;SDS011;71462;50.650;6.888;2023-12-22T00:37:01;6.43;;;1.70;;
81960;SDS011;71462;50.650;6.888;2023-12-22T00:39:31;7.25;;;1.40;;
81960;SDS011;71462;50.650;6.888;2023-12-22T00:42:12;3.47;;;0.93;;
81960;SDS011;71462;50.650;6.888;2023-12-22T00:44:40;6.40;;;1.42;;
81960;SDS011;71462;50.650;6.888;2023-12-22T00:47:08;5.65;;;1.08;;
81960;SDS011;71462;50.650;6.888;2023-12-22T00:49:37;6.70;;;1.60;;
81960;SDS011;71462;50.650;6.888;2023-12-22T00:52:05;6.85;;;1.50;;
81960;SDS011;71462;50.650;6.888;2023-12-22T00:54:32;6.22;;;1.20;;
81960;SDS011;71462;50.650;6.888;2023-12-22T00:57:00;4.50;;;1.85;;
81960;SDS011;71462;50.650;6.888;2023-12-22T00:59:28;4.50;;;1.13;;
81960;SDS011;71462;50.650;6.888;2023-12-22T01:01:56;4.85;;;1.05;;
81960;SDS011;71462;50.650;6.888;2023-12-22T01:04:24;4.40;;;1.23;;
81960;SDS011;71462;50.650;6.888;2023-12-22T01:06:53;6.93;;;1.58;;
81960;SDS011;71462;50.650;6.888;2023-12-22T01:09:21;5.63;;;1.48;;
81960;SDS011;71462;50.650;6.888;2023-12-22T01:11:48;5.70;;;1.75;;
81960;SDS011;71462;50.650;6.888;2023-12-22T01:14:16;5.88;;;1.60;;
81960;SDS011;71462;50.650;6.888;2023-12-22T01:16:44;5.30;;;1.33;;
81960;SDS011;71462;50.650;6.888;2023-12-22T01:19:12;6.18;;;1.50;;
81960;SDS011;71462;50.650;6.888;2023-12-22T01:21:41;5.43;;;1.75;;
81960;SDS011;71462;50.650;6.888;2023-12-22T01:24:10;12.88;;;2.20;;
81960;SDS011;71462;50.650;6.888;2023-12-22T01:26:38;9.90;;;2.38;;
81960;SDS011;71462;50.650;6.888;2023-12-22T01:29:08;7.68;;;2.17;;
81960;SDS011;71462;50.650;6.888;2023-12-22T01:31:36;8.65;;;1.98;;
81960;SDS011;71462;50.650;6.888;2023-12-22T01:34:04;13.32;;;2.25;;
81960;SDS011;71462;50.650;6.888;2023-12-22T01:36:32;6.20;;;1.80;;
81960;SDS011;71462;50.650;6.888;2023-12-22T01:39:01;9.52;;;2.28;;
81960;SDS011;71462;50.650;6.888;2023-12-22T01:41:33;12.98;;;2.13;;
81960;SDS011;71462;50.650;6.888;2023-12-22T01:44:01;7.45;;;2.33;;
81960;SDS011;71462;50.650;6.888;2023-12-22T01:46:29;7.50;;;1.83;;
81960;SDS011;71462;50.650;6.888;2023-12-22T01:48:57;5.63;;;2.10;;
81960;SDS011;71462;50.650;6.888;2023-12-22T01:51:27;8.13;;;1.75;;
81960;SDS011;71462;50.650;6.888;2023-12-22T01:53:56;8.02;;;2.08;;
81960;SDS011;71462;50.650;6.888;2023-12-22T01:56:24;10.57;;;2.17;;
81960;SDS011;71462;50.650;6.888;2023-12-22T01:58:55;11.02;;;2.10;;
81960;SDS011;71462;50.650;6.888;2023-12-22T02:01:26;6.20;;;1.98;;
81960;SDS011;71462;50.650;6.888;2023-12-22T02:03:55;6.82;;;2.13;;
81960;SDS011;71462;50.650;6.888;2023-12-22T02:06:25;10.23;;;1.92;;
81960;SDS011;71462;50.650;6.888;2023-12-22T02:08:53;7.35;;;2.17;;
81960;SDS011;71462;50.650;6.888;2023-12-22T02:11:21;10.40;;;2.72;;
81960;SDS011;71462;50.650;6.888;2023-12-22T02:13:49;11.15;;;2.53;;
81960;SDS011;71462;50.650;6.888;2023-12-22T02:16:20;13.32;;;2.28;;
81960;SDS011;71462;50.650;6.888;2023-12-22T02:18:53;8.55;;;2.35;;
81960;SDS011;71462;50.650;6.888;2023-12-22T02:21:22;8.63;;;2.40;;
81960;SDS011;71462;50.650;6.888;2023-12-22T02:23:52;9.40;;;2.33;;
81960;SDS011;71462;50.650;6.888;2023-12-22T02:26:22;5.75;;;2.15;;
81960;SDS011;71462;50.650;6.888;2023-12-22T02:28:56;8.20;;;2.10;;
81960;SDS011;71462;50.650;6.888;2023-12-22T02:31:32;7.13;;;2.22;;
81960;SDS011;71462;50.650;6.888;2023-12-22T02:34:03;8.07;;;2.67;;
81960;SDS011;71462;50.650;6.888;2023-12-22T02:36:38;9.63;;;2.08;;
81960;SDS011;71462;50.650;6.888;2023-12-22T02:39:09;4.80;;;1.60;;
81960;SDS011;71462;50.650;6.888;2023-12-22T02:41:41;9.48;;;2.28;;
81960;SDS011;71462;50.650;6.888;2023-12-22T02:44:09;10.80;;;2.50;;
81960;SDS011;71462;50.650;6.888;2023-12-22T02:46:37;5.18;;;1.67;;
81960;SDS011;71462;50.650;6.888;2023-12-22T02:49:07;8.07;;;1.92;;
81960;SDS011;71462;50.650;6.888;2023-12-22T02:51:37;10.30;;;1.92;;
81960;SDS011;71462;50.650;6.888;2023-12-22T02:54:05;7.50;;;2.53;;
81960;SDS011;71462;50.650;6.888;2023-12-22T02:56:34;8.70;;;2.47;;
81960;SDS011;71462;50.650;6.888;2023-12-22T02:59:15;11.85;;;2.42;;
81960;SDS011;71462;50.650;6.888;2023-12-22T03:01:43;9.15;;;2.10;;
81960;SDS011;71462;50.650;6.888;2023-12-22T03:04:14;11.07;;;2.25;;
81960;SDS011;71462;50.650;6.888;2023-12-22T03:06:43;7.40;;;2.10;;
81960;SDS011;71462;50.650;6.888;2023-12-22T03:09:11;7.95;;;2.53;;
81960;SDS011;71462;50.650;6.888;2023-12-22T03:11:40;12.38;;;2.17;;
81960;SDS011;71462;50.650;6.888;2023-12-22T03:14:08;10.18;;;2.63;;
81960;SDS011;71462;50.650;6.888;2023-12-22T03:16:36;8.35;;;2.28;;
81960;SDS011;71462;50.650;6.888;2023-12-22T03:19:07;7.40;;;1.92;;
81960;SDS011;71462;50.650;6.888;2023-12-22T03:21:35;11.05;;;2.50;;
81960;SDS011;71462;50.650;6.888;2023-12-22T03:24:03;11.10;;;2.35;;
81960;SDS011;71462;50.650;6.888;2023-12-22T03:26:31;10.00;;;2.58;;
81960;SDS011;71462;50.650;6.888;2023-12-22T03:29:00;8.75;;;2.63;;
81960;SDS011;71462;50.650;6.888;2023-12-22T03:31:28;7.75;;;2.90;;
81960;SDS011;71462;50.650;6.888;2023-12-22T03:34:00;10.35;;;2.45;;
81960;SDS011;71462;50.650;6.888;2023-12-22T03:36:28;13.63;;;3.60;;
81960;SDS011;71462;50.650;6.888;2023-12-22T03:38:57;14.98;;;3.20;;
81960;SDS011;71462;50.650;6.888;2023-12-22T03:41:25;13.57;;;3.10;;
81960;SDS011;71462;50.650;6.888;2023-12-22T03:43:53;13.55;;;2.95;;
81960;SDS011;71462;50.650;6.888;2023-12-22T03:46:24;15.48;;;2.78;;
81960;SDS011;71462;50.650;6.888;2023-12-22T03:48:52;9.50;;;2.67;;
81960;SDS011;71462;50.650;6.888;2023-12-22T03:51:20;7.47;;;2.20;;
81960;SDS011;71462;50.650;6.888;2023-12-22T03:53:48;11.73;;;2.78;;
81960;SDS011;71462;50.650;6.888;2023-12-22T03:56:16;8.35;;;2.67;;
81960;SDS011;71462;50.650;6.888;2023-12-22T03:58:45;6.82;;;2.25;;
81960;SDS011;71462;50.650;6.888;2023-12-22T04:01:13;10.90;;;2.85;;
81960;SDS011;71462;50.650;6.888;2023-12-22T04:03:47;6.97;;;2.20;;
81960;SDS011;71462;50.650;6.888;2023-12-22T04:06:15;16.08;;;2.78;;
81960;SDS011;71462;50.650;6.888;2023-12-22T04:08:42;10.20;;;2.40;;
81960;SDS011;71462;50.650;6.888;2023-12-22T04:11:10;13.05;;;2.75;;
81960;SDS011;71462;50.650;6.888;2023-12-22T04:13:38;8.63;;;2.17;;
81960;SDS011;71462;50.650;6.888;2023-12-22T04:16:06;7.15;;;2.20;;
81960;SDS011;71462;50.650;6.888;2023-12-22T04:18:33;10.75;;;2.33;;
81960;SDS011;71462;50.650;6.888;2023-12-22T04:21:03;13.32;;;2.67;;
81960;SDS011;71462;50.650;6.888;2023-12-22T04:23:31;12.18;;;2.03;;
81960;SDS011;71462;50.650;6.888;2023-12-22T04:25:58;13.13;;;2.30;;
81960;SDS011;71462;50.650;6.888;2023-12-22T04:28:28;10.05;;;2.03;;
81960;SDS011;71462;50.650;6.888;2023-12-22T04:30:55;8.98;;;2.30;;
81960;SDS011;71462;50.650;6.888;2023-12-22T04:33:23;12.07;;;3.08;;
81960;SDS011;71462;50.650;6.888;2023-12-22T04:35:51;12.25;;;2.78;;
81960;SDS011;71462;50.650;6.888;2023-12-22T04:38:20;9.25;;;2.20;;
81960;SDS011;71462;50.650;6.888;2023-12-22T04:40:48;12.43;;;4.15;;
81960;SDS011;71462;50.650;6.888;2023-12-22T04:43:17;9.75;;;2.72;;
81960;SDS011;71462;50.650;6.888;2023-12-22T04:45:45;13.23;;;3.28;;
81960;SDS011;71462;50.650;6.888;2023-12-22T04:48:13;12.20;;;3.05;;
81960;SDS011;71462;50.650;6.888;2023-12-22T04:50:41;18.25;;;3.47;;
81960;SDS011;71462;50.650;6.888;2023-12-22T04:53:09;8.85;;;2.78;;
81960;SDS011;71462;50.650;6.888;2023-12-22T04:55:38;9.07;;;2.40;;
81960;SDS011;71462;50.650;6.888;2023-12-22T04:58:06;10.43;;;2.47;;
81960;SDS011;71462;50.650;6.888;2023-12-22T05:00:34;11.23;;;2.50;;
81960;SDS011;71462;50.650;6.888;2023-12-22T05:03:13;11.90;;;2.58;;
81960;SDS011;71462;50.650;6.888;2023-12-22T05:05:44;13.65;;;2.95;;
81960;SDS011;71462;50.650;6.888;2023-12-22T05:08:12;10.15;;;3.05;;
81960;SDS011;71462;50.650;6.888;2023-12-22T05:10:42;12.00;;;3.08;;
81960;SDS011;71462;50.650;6.888;2023-12-22T05:13:10;9.68;;;2.33;;
81960;SDS011;71462;50.650;6.888;2023-12-22T05:15:38;9.48;;;2.17;;
81960;SDS011;71462;50.650;6.888;2023-12-22T05:18:08;9.98;;;2.58;;
81960;SDS011;71462;50.650;6.888;2023-12-22T05:20:36;12.30;;;2.42;;
81960;SDS011;71462;50.650;6.888;2023-12-22T05:23:04;11.80;;;2.35;;
81960;SDS011;71462;50.650;6.888;2023-12-22T05:25:32;11.35;;;2.47;;
81960;SDS011;71462;50.650;6.888;2023-12-22T05:28:02;12.35;;;2.53;;
81960;SDS011;71462;50.650;6.888;2023-12-22T05:30:32;11.40;;;2.53;;
81960;SDS011;71462;50.650;6.888;2023-12-22T05:33:06;19.42;;;4.20;;
81960;SDS011;71462;50.650;6.888;2023-12-22T05:35:38;9.73;;;2.90;;
81960;SDS011;71462;50.650;6.888;2023-12-22T05:38:07;12.07;;;2.63;;
81960;SDS011;71462;50.650;6.888;2023-12-22T05:40:35;11.82;;;2.67;;
81960;SDS011;71462;50.650;6.888;2023-12-22T05:43:06;11.68;;;3.00;;
81960;SDS011;71462;50.650;6.888;2023-12-22T05:45:34;11.38;;;2.60;;
81960;SDS011;71462;50.650;6.888;2023-12-22T05:48:02;12.40;;;2.97;;
81960;SDS011;71462;50.650;6.888;2023-12-22T05:50:33;14.75;;;2.90;;
81960;SDS011;71462;50.650;6.888;2023-12-22T05:53:03;8.40;;;2.42;;
81960;SDS011;71462;50.650;6.888;2023-12-22T05:55:34;11.70;;;3.15;;
81960;SDS011;71462;50.650;6.888;2023-12-22T05:58:02;12.43;;;2.70;;
81960;SDS011;71462;50.650;6.888;2023-12-22T06:00:31;12.55;;;3.67;;
81960;SDS011;71462;50.650;6.888;2023-12-22T06:03:01;11.98;;;3.20;;
81960;SDS011;71462;50.650;6.888;2023-12-22T06:05:29;11.77;;;2.42;;
81960;SDS011;71462;50.650;6.888;2023-12-22T06:08:00;10.02;;;2.95;;
81960;SDS011;71462;50.650;6.888;2023-12-22T06:10:28;10.88;;;2.90;;
81960;SDS011;71462;50.650;6.888;2023-12-22T06:12:58;14.18;;;3.00;;
81960;SDS011;71462;50.650;6.888;2023-12-22T06:15:34;12.65;;;3.10;;
81960;SDS011;71462;50.650;6.888;2023-12-22T06:18:01;10.23;;;3.40;;
81960;SDS011;71462;50.650;6.888;2023-12-22T06:20:30;10.80;;;2.47;;
81960;SDS011;71462;50.650;6.888;2023-12-22T06:22:58;12.07;;;2.42;;
81960;SDS011;71462;50.650;6.888;2023-12-22T06:25:38;9.45;;;2.67;;
81960;SDS011;71462;50.650;6.888;2023-12-22T06:28:16;9.35;;;2.53;;
81960;SDS011;71462;50.650;6.888;2023-12-22T06:30:45;7.57;;;2.35;;
81960;SDS011;71462;50.650;6.888;2023-12-22T06:33:13;8.60;;;2.33;;
81960;SDS011;71462;50.650;6.888;2023-12-22T06:35:41;9.75;;;2.25;;
81960;SDS011;71462;50.650;6.888;2023-12-22T06:38:11;17.58;;;2.92;;
81960;SDS011;71462;50.650;6.888;2023-12-22T06:40:39;13.82;;;3.00;;
81960;SDS011;71462;50.650;6.888;2023-12-22T06:43:08;11.45;;;2.42;;
81960;SDS011;71462;50.650;6.888;2023-12-22T06:45:36;16.83;;;3.05;;
81960;SDS011;71462;50.650;6.888;2023-12-22T06:48:09;14.02;;;2.65;;
81960;SDS011;71462;50.650;6.888;2023-12-22T06:50:37;13.80;;;2.70;;
81960;SDS011;71462;50.650;6.888;2023-12-22T06:53:12;16.00;;;3.70;;
81960;SDS011;71462;50.650;6.888;2023-12-22T06:55:51;14.40;;;3.20;;
81960;SDS011;71462;50.650;6.888;2023-12-22T06:58:19;17.98;;;3.53;;
81960;SDS011;71462;50.650;6.888;2023-12-22T07:00:48;12.70;;;3.50;;
81960;SDS011;71462;50.650;6.888;2023-12-22T07:03:17;13.45;;;2.92;;
81960;SDS011;71462;50.650;6.888;2023-12-22T07:05:45;13.88;;;2.65;;
81960;SDS011;71462;50.650;6.888;2023-12-22T07:08:13;13.13;;;3.00;;
81960;SDS011;71462;50.650;6.888;2023-12-22T07:10:41;9.50;;;2.70;;
81960;SDS011;71462;50.650;6.888;2023-12-22T07:13:09;5.68;;;1.50;;
81960;SDS011;71462;50.650;6.888;2023-12-22T07:15:36;5.43;;;1.70;;
81960;SDS011;71462;50.650;6.888;2023-12-22T07:18:04;8.57;;;2.05;;
81960;SDS011;71462;50.650;6.888;2023-12-22T07:20:34;16.50;;;8.88;;
81960;SDS011;71462;50.650;6.888;2023-12-22T07:23:02;19.05;;;7.43;;
81960;SDS011;71462;50.650;6.888;2023-12-22T07:25:34;14.40;;;4.47;;
81960;SDS011;71462;50.650;6.888;2023-12-22T07:28:03;17.98;;;5.43;;
81960;SDS011;71462;50.650;6.888;2023-12-22T07:30:32;13.90;;;3.65;;
81960;SDS011;71462;50.650;6.888;2023-12-22T07:33:01;14.65;;;3.78;;
81960;SDS011;71462;50.650;6.888;2023-12-22T07:35:28;14.38;;;4.05;;
81960;SDS011;71462;50.650;6.888;2023-12-22T07:38:00;18.10;;;4.40;;
81960;SDS011;71462;50.650;6.888;2023-12-22T07:40:29;19.42;;;4.63;;
81960;SDS011;71462;50.650;6.888;2023-12-22T07:42:57;15.82;;;4.72;;
81960;SDS011;71462;50.650;6.888;2023-12-22T07:45:25;18.83;;;4.32;;
81960;SDS011;71462;50.650;6.888;2023-12-22T07:47:54;20.23;;;5.22;;
81960;SDS011;71462;50.650;6.888;2023-12-22T07:50:22;16.75;;;4.28;;
81960;SDS011;71462;50.650;6.888;2023-12-22T07:52:50;26.77;;;7.95;;
81960;SDS011;71462;50.650;6.888;2023-12-22T07:55:19;22.05;;;5.13;;
81960;SDS011;71462;50.650;6.888;2023-12-22T07:57:47;22.63;;;5.35;;
81960;SDS011;71462;50.650;6.888;2023-12-22T08:00:19;24.48;;;7.50;;
81960;SDS011;71462;50.650;6.888;2023-12-22T08:02:47;14.60;;;4.28;;
81960;SDS011;71462;50.650;6.888;2023-12-22T08:05:16;9.73;;;3.00;;
81960;SDS011;71462;50.650;6.888;2023-12-22T08:07:46;10.93;;;3.40;;
81960;SDS011;71462;50.650;6.888;2023-12-22T08:10:14;13.90;;;2.88;;
81960;SDS011;71462;50.650;6.888;2023-12-22T08:12:46;9.02;;;2.92;;
81960;SDS011;71462;50.650;6.888;2023-12-22T08:15:16;10.43;;;2.67;;
81960;SDS011;71462;50.650;6.888;2023-12-22T08:17:57;11.95;;;3.33;;
81960;SDS011;71462;50.650;6.888;2023-12-22T08:20:25;12.32;;;3.20;;
81960;SDS011;71462;50.650;6.888;2023-12-22T08:23:02;15.45;;;3.88;;
81960;SDS011;71462;50.650;6.888;2023-12-22T08:25:36;15.95;;;3.80;;
81960;SDS011;71462;50.650;6.888;2023-12-22T08:28:07;15.93;;;3.78;;
81960;SDS011;71462;50.650;6.888;2023-12-22T08:30:35;16.10;;;3.83;;
81960;SDS011;71462;50.650;6.888;2023-12-22T08:33:05;13.77;;;3.45;;
81960;SDS011;71462;50.650;6.888;2023-12-22T08:35:33;16.73;;;4.47;;
81960;SDS011;71462;50.650;6.888;2023-12-22T08:38:01;11.63;;;3.13;;
81960;SDS011;71462;50.650;6.888;2023-12-22T08:40:33;18.77;;;4.68;;
81960;SDS011;71462;50.650;6.888;2023-12-22T08:43:02;14.63;;;4.03;;
81960;SDS011;71462;50.650;6.888;2023-12-22T08:45:34;13.35;;;3.83;;
81960;SDS011;71462;50.650;6.888;2023-12-22T08:48:02;15.43;;;3.13;;
81960;SDS011;71462;50.650;6.888;2023-12-22T08:50:34;16.33;;;3.08;;
81960;SDS011;71462;50.650;6.888;2023-12-22T08:53:02;13.65;;;3.45;;
81960;SDS011;71462;50.650;6.888;2023-12-22T08:55:32;17.90;;;3.40;;
81960;SDS011;71462;50.650;6.888;2023-12-22T08:58:00;22.42;;;4.00;;
81960;SDS011;71462;50.650;6.888;2023-12-22T09:00:30;15.68;;;4.28;;
81960;SDS011;71462;50.650;6.888;2023-12-22T09:02:59;20.20;;;4.22;;
81960;SDS011;71462;50.650;6.888;2023-12-22T09:05:28;14.48;;;3.08;;
81960;SDS011;71462;50.650;6.888;2023-12-22T09:08:00;9.20;;;3.00;;
81960;SDS011;71462;50.650;6.888;2023-12-22T09:10:31;10.15;;;3.67;;
81960;SDS011;71462;50.650;6.888;2023-12-22T09:13:05;11.15;;;3.00;;
81960;SDS011;71462;50.650;6.888;2023-12-22T09:15:36;13.93;;;3.53;;
81960;SDS011;71462;50.650;6.888;2023-12-22T09:18:06;11.55;;;3.38;;
81960;SDS011;71462;50.650;6.888;2023-12-22T09:20:34;14.35;;;2.90;;
81960;SDS011;71462;50.650;6.888;2023-12-22T09:23:07;13.00;;;2.95;;
81960;SDS011;71462;50.650;6.888;2023-12-22T09:25:36;10.23;;;2.72;;
81960;SDS011;71462;50.650;6.888;2023-12-22T09:28:05;9.80;;;3.13;;
81960;SDS011;71462;50.650;6.888;2023-12-22T09:33:09;9.20;;;2.92;;
81960;SDS011;71462;50.650;6.888;2023-12-22T09:35:49;9.60;;;2.55;;
81960;SDS011;71462;50.650;6.888;2023-12-22T09:38:24;12.02;;;2.30;;
81960;SDS011;71462;50.650;6.888;2023-12-22T09:40:52;10.80;;;2.92;;
81960;SDS011;71462;50.650;6.888;2023-12-22T09:43:20;9.65;;;2.55;;
81960;SDS011;71462;50.650;6.888;2023-12-22T09:45:48;5.03;;;2.05;;
81960;SDS011;71462;50.650;6.888;2023-12-22T09:48:20;11.13;;;2.40;;
81960;SDS011;71462;50.650;6.888;2023-12-22T09:50:54;4.38;;;1.55;;
81960;SDS011;71462;50.650;6.888;2023-12-22T09:53:28;4.00;;;1.60;;
81960;SDS011;71462;50.650;6.888;2023-12-22T09:55:58;4.95;;;1.95;;
81960;SDS011;71462;50.650;6.888;2023-12-22T09:58:33;8.00;;;2.30;;
81960;SDS011;71462;50.650;6.888;2023-12-22T10:01:03;6.60;;;1.90;;
81960;SDS011;71462;50.650;6.888;2023-12-22T10:03:34;8.57;;;2.55;;
81960;SDS011;71462;50.650;6.888;2023-12-22T10:06:04;3.90;;;1.25;;
81960;SDS011;71462;50.650;6.888;2023-12-22T10:08:32;4.13;;;1.70;;
81960;SDS011;71462;50.650;6.888;2023-12-22T10:11:04;3.63;;;1.67;;
81960;SDS011;71462;50.650;6.888;2023-12-22T10:13:34;4.28;;;1.50;;
81960;SDS011;71462;50.650;6.888;2023-12-22T10:16:04;4.00;;;1.40;;
81960;SDS011;71462;50.650;6.888;2023-12-22T10:18:37;6.97;;;2.33;;
81960;SDS011;71462;50.650;6.888;2023-12-22T10:21:06;5.22;;;1.35;;
81960;SDS011;71462;50.650;6.888;2023-12-22T10:23:34;7.53;;;2.13;;
81960;SDS011;71462;50.650;6.888;2023-12-22T10:26:02;16.25;;;5.57;;
81960;SDS011;71462;50.650;6.888;2023-12-22T10:28:31;3.75;;;1.60;;
81960;SDS011;71462;50.650;6.888;2023-12-22T10:30:59;3.67;;;1.42;;
81960;SDS011;71462;50.650;6.888;2023-12-22T10:33:32;2.65;;;1.40;;
81960;SDS011;71462;50.650;6.888;2023-12-22T10:36:01;4.05;;;1.38;;
81960;SDS011;71462;50.650;6.888;2023-12-22T10:38:32;2.67;;;1.38;;
81960;SDS011;71462;50.650;6.888;2023-12-22T10:41:01;2.58;;;1.00;;
81960;SDS011;71462;50.650;6.888;2023-12-22T10:43:30;3.50;;;1.30;;
81960;SDS011;71462;50.650;6.888;2023-12-22T10:45:58;3.35;;;1.33;;
81960;SDS011;71462;50.650;6.888;2023-12-22T10:48:27;3.55;;;1.63;;
81960;SDS011;71462;50.650;6.888;2023-12-22T10:50:57;4.45;;;1.38;;
81960;SDS011;71462;50.650;6.888;2023-12-22T10:53:26;3.10;;;1.10;;
81960;SDS011;71462;50.650;6.888;2023-12-22T10:56:03;2.20;;;1.17;;
81960;SDS011;71462;50.650;6.888;2023-12-22T10:58:34;5.00;;;1.60;;
81960;SDS011;71462;50.650;6.888;2023-12-22T11:01:03;3.53;;;1.27;;
81960;SDS011;71462;50.650;6.888;2023-12-22T11:03:38;3.97;;;1.38;;
81960;SDS011;71462;50.650;6.888;2023-12-22T11:06:13;3.65;;;1.30;;
81960;SDS011;71462;50.650;6.888;2023-12-22T11:08:45;1.77;;;0.95;;
81960;SDS011;71462;50.650;6.888;2023-12-22T11:11:20;2.97;;;1.25;;
81960;SDS011;71462;50.650;6.888;2023-12-22T11:13:55;2.28;;;1.40;;
81960;SDS011;71462;50.650;6.888;2023-12-22T11:16:24;2.13;;;1.23;;
81960;SDS011;71462;50.650;6.888;2023-12-22T11:18:54;3.83;;;1.70;;
81960;SDS011;71462;50.650;6.888;2023-12-22T11:21:26;5.20;;;1.77;;
81960;SDS011;71462;50.650;6.888;2023-12-22T11:23:56;2.47;;;1.20;;
81960;SDS011;71462;50.650;6.888;2023-12-22T11:26:25;3.70;;;1.42;;
81960;SDS011;71462;50.650;6.888;2023-12-22T11:28:53;2.88;;;1.40;;
81960;SDS011;71462;50.650;6.888;2023-12-22T11:31:21;3.83;;;1.20;;
81960;SDS011;71462;50.650;6.888;2023-12-22T11:33:53;2.65;;;1.20;;
81960;SDS011;71462;50.650;6.888;2023-12-22T11:36:35;3.08;;;1.33;;
81960;SDS011;71462;50.650;6.888;2023-12-22T11:39:06;4.97;;;1.80;;
81960;SDS011;71462;50.650;6.888;2023-12-22T11:41:38;4.10;;;2.10;;
81960;SDS011;71462;50.650;6.888;2023-12-22T11:44:07;3.95;;;2.20;;
81960;SDS011;71462;50.650;6.888;2023-12-22T11:46:35;2.72;;;1.40;;
81960;SDS011;71462;50.650;6.888;2023-12-22T11:49:04;2.00;;;1.50;;
81960;SDS011;71462;50.650;6.888;2023-12-22T11:51:32;2.13;;;1.20;;
81960;SDS011;71462;50.650;6.888;2023-12-22T11:54:02;4.10;;;1.50;;
81960;SDS011;71462;50.650;6.888;2023-12-22T11:56:31;3.55;;;1.55;;
81960;SDS011;71462;50.650;6.888;2023-12-22T11:59:03;3.92;;;1.35;;
81960;SDS011;71462;50.650;6.888;2023-12-22T12:01:34;3.20;;;1.50;;
81960;SDS011;71462;50.650;6.888;2023-12-22T12:04:09;3.15;;;1.20;;
81960;SDS011;71462;50.650;6.888;2023-12-22T12:06:37;2.90;;;1.60;;
81960;SDS011;71462;50.650;6.888;2023-12-22T12:09:06;1.90;;;1.20;;
81960;SDS011;71462;50.650;6.888;2023-12-22T12:14:41;2.88;;;1.38;;
81960;SDS011;71462;50.650;6.888;2023-12-22T12:17:11;2.95;;;1.38;;
81960;SDS011;71462;50.650;6.888;2023-12-22T12:19:44;3.25;;;1.63;;
81960;SDS011;71462;50.650;6.888;2023-12-22T12:22:12;3.97;;;1.40;;
81960;SDS011;71462;50.650;6.888;2023-12-22T12:24:40;3.78;;;1.50;;
81960;SDS011;71462;50.650;6.888;2023-12-22T12:27:08;3.72;;;1.52;;
81960;SDS011;71462;50.650;6.888;2023-12-22T12:29:40;5.18;;;1.95;;
81960;SDS011;71462;50.650;6.888;2023-12-22T12:32:09;4.20;;;1.85;;
81960;SDS011;71462;50.650;6.888;2023-12-22T12:34:42;4.43;;;1.70;;
81960;SDS011;71462;50.650;6.888;2023-12-22T12:37:10;2.83;;;1.10;;
81960;SDS011;71462;50.650;6.888;2023-12-22T12:39:39;3.15;;;1.38;;
81960;SDS011;71462;50.650;6.888;2023-12-22T12:42:09;4.20;;;1.50;;
81960;SDS011;71462;50.650;6.888;2023-12-22T12:44:44;3.95;;;1.70;;
81960;SDS011;71462;50.650;6.888;2023-12-22T12:47:13;5.07;;;2.10;;
81960;SDS011;71462;50.650;6.888;2023-12-22T12:49:42;3.97;;;1.23;;
81960;SDS011;71462;50.650;6.888;2023-12-22T12:52:13;3.83;;;1.42;;
81960;SDS011;71462;50.650;6.888;2023-12-22T12:54:41;7.18;;;1.88;;
81960;SDS011;71462;50.650;6.888;2023-12-22T12:57:13;3.90;;;1.70;;
81960;SDS011;71462;50.650;6.888;2023-12-22T12:59:45;4.85;;;1.20;;
81960;SDS011;71462;50.650;6.888;2023-12-22T13:02:15;3.95;;;1.30;;
81960;SDS011;71462;50.650;6.888;2023-12-22T13:04:43;5.30;;;1.50;;
81960;SDS011;71462;50.650;6.888;2023-12-22T13:07:11;2.00;;;1.23;;
81960;SDS011;71462;50.650;6.888;2023-12-22T13:09:40;3.95;;;1.50;;
81960;SDS011;71462;50.650;6.888;2023-12-22T13:12:09;4.82;;;1.60;;
81960;SDS011;71462;50.650;6.888;2023-12-22T13:14:37;2.65;;;1.30;;
81960;SDS011;71462;50.650;6.888;2023-12-22T13:17:06;4.05;;;1.77;;
81960;SDS011;71462;50.650;6.888;2023-12-22T13:19:36;3.80;;;1.70;;
81960;SDS011;71462;50.650;6.888;2023-12-22T13:22:04;7.22;;;1.83;;
81960;SDS011;71462;50.650;6.888;2023-12-22T13:24:32;5.05;;;1.73;;
81960;SDS011;71462;50.650;6.888;2023-12-22T13:27:00;5.32;;;2.30;;
81960;SDS011;71462;50.650;6.888;2023-12-22T13:29:30;3.22;;;1.67;;
81960;SDS011;71462;50.650;6.888;2023-12-22T13:32:15;3.80;;;1.80;;
81960;SDS011;71462;50.650;6.888;2023-12-22T13:34:48;3.42;;;2.00;;
81960;SDS011;71462;50.650;6.888;2023-12-22T13:39:47;5.35;;;2.42;;
81960;SDS011;71462;50.650;6.888;2023-12-22T13:42:18;3.58;;;1.67;;
81960;SDS011;71462;50.650;6.888;2023-12-22T13:44:49;7.03;;;2.92;;
81960;SDS011;71462;50.650;6.888;2023-12-22T13:47:20;6.43;;;1.90;;
81960;SDS011;71462;50.650;6.888;2023-12-22T13:49:54;4.13;;;2.17;;
81960;SDS011;71462;50.650;6.888;2023-12-22T13:52:25;6.07;;;2.20;;
81960;SDS011;71462;50.650;6.888;2023-12-22T13:54:54;5.07;;;2.22;;
81960;SDS011;71462;50.650;6.888;2023-12-22T13:57:24;5.00;;;2.50;;
81960;SDS011;71462;50.650;6.888;2023-12-22T13:59:52;4.78;;;2.08;;
81960;SDS011;71462;50.650;6.888;2023-12-22T14:02:22;2.72;;;1.30;;
81960;SDS011;71462;50.650;6.888;2023-12-22T14:04:50;5.60;;;2.53;;
81960;SDS011;71462;50.650;6.888;2023-12-22T14:07:19;4.93;;;1.98;;
81960;SDS011;71462;50.650;6.888;2023-12-22T14:09:46;2.80;;;1.55;;
81960;SDS011;71462;50.650;6.888;2023-12-22T14:12:14;4.95;;;2.10;;
81960;SDS011;71462;50.650;6.888;2023-12-22T14:14:56;7.65;;;2.42;;
81960;SDS011;71462;50.650;6.888;2023-12-22T14:17:25;5.57;;;2.63;;
81960;SDS011;71462;50.650;6.888;2023-12-22T14:19:55;3.40;;;1.63;;
81960;SDS011;71462;50.650;6.888;2023-12-22T14:22:23;6.88;;;2.13;;
81960;SDS011;71462;50.650;6.888;2023-12-22T14:24:51;4.45;;;1.67;;
81960;SDS011;71462;50.650;6.888;2023-12-22T14:27:19;6.70;;;3.28;;
81960;SDS011;71462;50.650;6.888;2023-12-22T14:29:46;7.00;;;3.85;;
81960;SDS011;71462;50.650;6.888;2023-12-22T14:32:14;5.57;;;2.05;;
81960;SDS011;71462;50.650;6.888;2023-12-22T14:34:46;7.35;;;2.15;;
81960;SDS011;71462;50.650;6.888;2023-12-22T14:37:14;4.72;;;2.00;;
81960;SDS011;71462;50.650;6.888;2023-12-22T14:39:43;3.88;;;1.58;;
81960;SDS011;71462;50.650;6.888;2023-12-22T14:42:11;1.30;;;1.08;;
81960;SDS011;71462;50.650;6.888;2023-12-22T14:44:41;3.45;;;1.65;;
81960;SDS011;71462;50.650;6.888;2023-12-22T14:47:09;3.80;;;1.40;;
81960;SDS011;71462;50.650;6.888;2023-12-22T14:49:39;3.70;;;1.65;;
81960;SDS011;71462;50.650;6.888;2023-12-22T14:52:09;3.40;;;1.52;;
81960;SDS011;71462;50.650;6.888;2023-12-22T14:54:39;4.18;;;1.73;;
81960;SDS011;71462;50.650;6.888;2023-12-22T14:57:06;3.40;;;1.67;;
81960;SDS011;71462;50.650;6.888;2023-12-22T14:59:34;8.18;;;2.40;;
81960;SDS011;71462;50.650;6.888;2023-12-22T15:02:02;4.95;;;1.50;;
81960;SDS011;71462;50.650;6.888;2023-12-22T15:04:31;4.82;;;2.10;;
81960;SDS011;71462;50.650;6.888;2023-12-22T15:06:59;5.03;;;1.90;;